Hillandale, Maryland
Current Conditions -  °F | °C
As of 10:50 PM on Saturday 24 Jan 2015 (Local Time) from KCGS Reporting Station
Broken Clouds Broken Clouds  
Wind Chill:   Ceiling: 4000
Heat Index:   Visibility: 10mi
Dew Point: -2°   Wind: 0mph
Humidity: 70%   Direction: NA
Pressure: 29.65"   Gusts: NA
Location:  39.0169°N, 76.9848°W
Report Text: KCGS 250350Z AUTO 00000KT 10SM BKN040 BKN060 03/M02 A2965 RMK AO1
Loading
Personal Weather Stations






























Interactive Weather Map New forecast layout! Learn more

10-Day Weather Forecast

Advertisements
Track Severe Weather on mobile